ハバロフスク の空港の天気 - METARとTAF

ハバロフスク空港 ( UHHH / KHV ) - ロシア ハバロフスク
飛行場実況気象(Metar)
観測時間08/14 15:30 VLAT (08/14 05:30 UTC)
風向・風速南東 4m/s
視程9000m
天気現象弱いしゅう雨
全天の8割程度の雲 雲底高度 700m
気温20℃
湿度94%
気圧998hPa
METARUHHH 140530Z 13004MPS 070V170 9000 -SHRA BKN023CB 20/19 Q0998 R05R/290045 NOSIG RMK QFE742/0990
過去の天気等 Google飛行場航空写真 Wunderground天気予報

過去48時間のMETAR

飛行場予報(TAF)
発表時間: 8/14 14:47 VLAT (8/14 04:47 UTC)
予報対象時間: 14日16時 VLAT ~ 15日22時 VLAT
風向・風速南東 6m/s
視程10km以上
天気現象弱いしゅう雨
全天の4割程度の雲 雲底高度 340m
全天の8割程度の積乱雲 雲底高度 610m
14日16時 VLAT ~ 15日2時 VLAT に一時的に
風向・風速不定 13m/s
視程3100m
天気現象弱い雷雨
全天の8割程度の雲 雲底高度 180m
全天の8割程度の積乱雲 雲底高度 460m
15日12時 VLAT から
風向・風速南西 5m/s
視程10km以上
全天の4割程度の積乱雲 雲底高度 610m
15日12時 VLAT ~ 15日18時 VLAT に一時的に
風向・風速西南西 6m/s 瞬間風速 11m/s
視程3100m
天気現象弱いしゅう雨
全天の4割程度の雲 雲底高度 340m
全天の8割程度の積乱雲 雲底高度 460m
TAF UHHH 140447Z 1406/1512 14006MPS 9999 -SHRA SCT011 BKN020CB
TEMPO 1406/1416 VRB13MPS 3100 -TSRA BKN006 BKN015CB
FM150200 23005MPS 9999 SCT020CB
TEMPO 1502/1508 25006G11MPS 3100 -SHRA SCT011 BKN015CB